»·PEaware :: UPS2906 KABQ-KPHX

UPS2906 :: KABQ-KPHX

FLIGHT INFORMATION

Flight Status: Arrived
Operator:
United Parcel Service
More flights by this operator :: More flights under this callsign
Pilot: Jacob S. (4526)
Aircraft: AIRBUS A300B4-600
(A306)
More flights by this aircraft type
Origin: KABQ Albuquerque Intl Sunport
United States
Destination: KPHX Phoenix Sky Harbor Intl
United States
More flights between these airports :: More routes between these airports
Route: RDRNR3 ZUN EAGUL6
File this flight plan on PilotEdge
Remarks: RMK / SIMBRIEF
Altitude:
(Current/Filed)
36,000ft
Speed:
(Current/Filed)
459kts
Departed: 10-Nov-20 07:46 PM
Arrived: 10-Nov-20 08:45 PM
Distance/Time
Traveled:
285nm/0:59
Distance/Time
To Go:
Arrived

Flight Plot

Page will automatically refresh every two minutes.


Map Options




Map Legend


Flown Route
Filed Route
Departure Airport
Arrival Airport
Navaid (VOR, NDB)
Fix

Horizontal Profiles

Position Reports

Time Latitude Longitude Heading Altitude Ground
Speed
10-Nov-20 18:51 35.030052 -106.625516 315 5325ft 0kts
10-Nov-20 18:52 35.030052 -106.625516 315 5325ft 0kts
10-Nov-20 18:53 35.030052 -106.625516 315 5325ft 0kts
10-Nov-20 18:54 35.030052 -106.625516 315 5325ft 0kts
10-Nov-20 18:54 35.030052 -106.625516 315 5325ft 0kts
10-Nov-20 18:56 35.030052 -106.625516 315 5325ft 0kts
10-Nov-20 18:57 35.030052 -106.625516 315 5325ft 0kts
10-Nov-20 18:58 35.030052 -106.625516 315 5325ft 0kts
10-Nov-20 18:58 35.030052 -106.625516 315 5325ft 0kts
10-Nov-20 19:00 35.030052 -106.625516 315 5325ft 0kts
10-Nov-20 19:00 35.030052 -106.625516 315 5325ft 0kts
10-Nov-20 19:02 35.030052 -106.625516 315 5325ft 0kts
10-Nov-20 19:02 35.030052 -106.625516 315 5325ft 0kts
10-Nov-20 19:04 35.030052 -106.625516 315 5325ft 0kts
10-Nov-20 19:04 35.030052 -106.625516 315 5325ft 0kts
10-Nov-20 19:05 35.030052 -106.625516 315 5325ft 0kts
10-Nov-20 19:06 35.030052 -106.625516 315 5325ft 0kts
10-Nov-20 19:07 35.030052 -106.625516 315 5325ft 0kts
10-Nov-20 19:08 35.030052 -106.625516 315 5325ft 0kts
10-Nov-20 19:09 35.030052 -106.625516 315 5325ft 0kts
10-Nov-20 19:10 35.030052 -106.625516 315 5325ft 0kts
10-Nov-20 19:11 35.030052 -106.625516 315 5325ft 0kts
10-Nov-20 19:12 35.030052 -106.625516 315 5325ft 0kts
10-Nov-20 19:13 35.030052 -106.625516 315 5325ft 0kts
10-Nov-20 19:14 35.030052 -106.625516 315 5325ft 0kts
10-Nov-20 19:15 35.030052 -106.625516 315 5325ft 0kts
10-Nov-20 19:16 35.030052 -106.625516 315 5325ft 0kts
10-Nov-20 19:17 35.030052 -106.625516 315 5325ft 0kts
10-Nov-20 19:18 35.030052 -106.625516 315 5325ft 0kts
10-Nov-20 19:19 35.030052 -106.625516 315 5325ft 0kts
10-Nov-20 19:20 35.030052 -106.625516 315 5325ft 0kts
10-Nov-20 19:21 35.030052 -106.625516 315 5325ft 0kts
10-Nov-20 19:22 35.030052 -106.625516 315 5325ft 0kts
10-Nov-20 19:23 35.030052 -106.625516 315 5325ft 0kts
10-Nov-20 19:24 35.030052 -106.625516 315 5325ft 0kts
10-Nov-20 19:25 35.030052 -106.625516 315 5325ft 0kts
10-Nov-20 19:26 35.030052 -106.625516 315 5325ft 0kts
10-Nov-20 19:27 35.030021 -106.625485 293 5325ft 1kts
10-Nov-20 19:28 35.030011 -106.624792 248 5325ft 2kts
10-Nov-20 19:29 35.030346 -106.624195 233 5325ft 2kts
10-Nov-20 19:30 35.030618 -106.623740 223 5326ft 0kts
10-Nov-20 19:31 35.030617 -106.623741 223 5326ft 0kts
10-Nov-20 19:32 35.030617 -106.623741 223 5326ft 0kts
10-Nov-20 19:33 35.030617 -106.623741 223 5326ft 0kts
10-Nov-20 19:34 35.030617 -106.623741 223 5326ft 0kts
10-Nov-20 19:35 35.030617 -106.623741 223 5326ft 0kts
10-Nov-20 19:36 35.030617 -106.623741 223 5326ft 0kts
10-Nov-20 19:37 35.030617 -106.623741 223 5326ft 0kts
10-Nov-20 19:38 35.030279 -106.624144 223 5325ft 2kts
10-Nov-20 19:39 35.028307 -106.625403 224 5324ft 10kts
10-Nov-20 19:40 35.026704 -106.627345 224 5323ft 9kts
10-Nov-20 19:41 35.024526 -106.630001 224 5322ft 10kts
10-Nov-20 19:42 35.023160 -106.631328 172 5321ft 0kts
10-Nov-20 19:43 35.023058 -106.631277 150 5321ft 0kts
10-Nov-20 19:44 35.022592 -106.630264 45 5321ft 0kts
10-Nov-20 19:45 35.033756 -106.616726 43 5328ft 168kts
10-Nov-20 19:46 35.085345 -106.568765 12 6773ft 260kts
10-Nov-20 19:47 35.120085 -106.630560 257 8472ft 280kts
10-Nov-20 19:48 35.099135 -106.725817 255 10423ft 311kts
10-Nov-20 19:49 35.106103 -106.845096 278 13400ft 379kts
10-Nov-20 19:50 35.094240 -106.978323 256 17928ft 394kts
10-Nov-20 19:51 35.067908 -107.113720 256 21693ft 413kts
10-Nov-20 19:52 35.042265 -107.254289 264 24383ft 427kts
10-Nov-20 19:53 35.035310 -107.402156 267 26189ft 434kts
10-Nov-20 19:54 35.030214 -107.550094 267 27903ft 434kts
10-Nov-20 19:55 35.025309 -107.696710 267 30870ft 424kts
10-Nov-20 19:56 35.020452 -107.839703 267 34830ft 416kts
10-Nov-20 19:57 35.015530 -107.982808 267 36267ft 431kts
10-Nov-20 19:58 35.010347 -108.130481 267 36263ft 432kts
10-Nov-20 19:59 35.004999 -108.277759 267 36262ft 432kts
10-Nov-20 20:00 34.999451 -108.425152 267 36260ft 432kts
10-Nov-20 20:03 34.986668 -108.745386 266 36239ft 432kts
10-Nov-20 20:03 34.981486 -108.868977 266 36238ft 432kts
10-Nov-20 20:04 34.975145 -109.016503 266 36236ft 432kts
10-Nov-20 20:05 34.963319 -109.163086 248 36246ft 434kts
10-Nov-20 20:06 34.914017 -109.299182 247 36153ft 433kts
10-Nov-20 20:07 34.864317 -109.435502 247 36153ft 433kts
10-Nov-20 20:08 34.815076 -109.570322 247 36152ft 433kts
10-Nov-20 20:09 34.764957 -109.706280 246 36159ft 433kts
10-Nov-20 20:10 34.714525 -109.841966 246 36201ft 433kts
10-Nov-20 20:11 34.665195 -109.974213 246 33347ft 411kts
10-Nov-20 20:12 34.617348 -110.102469 246 33156ft 411kts
10-Nov-20 20:13 34.569460 -110.230711 246 33138ft 411kts
10-Nov-20 20:14 34.521500 -110.358866 246 33137ft 411kts
10-Nov-20 20:15 34.473260 -110.486614 245 32168ft 402kts
10-Nov-20 20:16 34.426355 -110.609797 246 30145ft 385kts
10-Nov-20 20:17 34.380325 -110.730635 245 30018ft 389kts
10-Nov-20 20:18 34.318667 -110.838654 229 28073ft 390kts
10-Nov-20 20:19 34.246407 -110.933514 228 24983ft 374kts
10-Nov-20 20:20 34.178331 -111.021915 228 22115ft 353kts
10-Nov-20 20:21 34.111975 -111.107740 227 20692ft 343kts
10-Nov-20 20:22 34.047063 -111.191191 227 19471ft 331kts
10-Nov-20 20:23 33.983542 -111.272769 227 18045ft 317kts
10-Nov-20 20:24 33.922864 -111.350655 227 17144ft 323kts
10-Nov-20 20:25 33.864418 -111.435192 237 16418ft 319kts
10-Nov-20 20:26 33.819349 -111.521063 238 14698ft 284kts
10-Nov-20 20:27 33.775380 -111.604559 238 14117ft 302kts
10-Nov-20 20:28 33.728984 -111.691688 237 12657ft 301kts
10-Nov-20 20:29 33.686972 -111.770569 237 11561ft 269kts
10-Nov-20 20:30 33.648411 -111.843221 237 10355ft 247kts
10-Nov-20 20:31 33.611768 -111.912194 237 9530ft 248kts
10-Nov-20 20:32 33.574667 -111.981858 237 8190ft 243kts
10-Nov-20 20:33 33.538522 -112.049699 238 6958ft 240kts
10-Nov-20 20:34 33.524754 -112.124547 268 6777ft 235kts
10-Nov-20 20:35 33.523842 -112.202112 268 6734ft 224kts
10-Nov-20 20:37 33.523170 -112.277790 268 6737ft 232kts
10-Nov-20 20:38 33.521689 -112.356957 254 6501ft 238kts
10-Nov-20 20:39 33.469687 -112.368779 135 5561ft 241kts
10-Nov-20 20:40 33.430964 -112.304302 98 4832ft 221kts
10-Nov-20 20:41 33.440731 -112.236049 93 4504ft 185kts
10-Nov-20 20:42 33.440560 -112.174117 90 3556ft 184kts
10-Nov-20 20:43 33.440682 -112.113671 90 2564ft 178kts
10-Nov-20 20:44 33.440758 -112.053824 90 1593ft 176kts
10-Nov-20 20:45 33.440830 -112.003640 89 1136ft 40kts
10-Nov-20 20:46 33.440253 -111.998174 134 1139ft 0kts
10-Nov-20 20:47 33.440253 -111.998174 134 1139ft 0kts
10-Nov-20 20:48 33.440253 -111.998174 134 1139ft 0kts
10-Nov-20 20:49 33.440252 -111.998173 135 1139ft 0kts
10-Nov-20 20:50 33.440252 -111.998173 135 1139ft 0kts
10-Nov-20 20:51 33.440064 -111.998183 193 1138ft 4kts
10-Nov-20 20:52 33.439043 -111.999988 269 1138ft 9kts
10-Nov-20 20:52 33.439059 -112.003039 270 1135ft 9kts
10-Nov-20 20:54 33.437651 -112.004702 189 1134ft 16kts
10-Nov-20 20:56 33.437174 -112.004889 236 1133ft 1kts
10-Nov-20 20:56 33.436565 -112.004681 181 1132ft 16kts
10-Nov-20 20:58 33.432886 -112.007889 269 1134ft 16kts
10-Nov-20 20:58 33.432893 -112.012097 270 1131ft 14kts

Navigation Log

Ident Type
Flight plan parsing failed, navigation log unavailable